| time (UTC) | temp F | wind direction | speed knots | gust knots | rain 1hr in | rain 24hr in | rain mn in | humidity % | barometer mb |
| 20260504222129 | 75 | 0 | 0.0 | 1.7 | 0.00 | 0.00 | 0.00 | 48 | 1013.1 |
| 20260504221631 | 75 | 0 | 0.0 | 1.7 | 0.00 | 0.00 | 0.00 | 46 | 1013.0 |
| 20260504221149 | 76 | 0 | 0.0 | 1.7 | 0.00 | 0.00 | 0.00 | 49 | 1013.0 |
| 20260504220129 | 76 | 70 | 0.0 | 1.7 | 0.00 | 0.00 | 0.00 | 48 | 1013.0 |
| 20260504215910 | 76 | 0 | 0.0 | 1.7 | 0.00 | 0.00 | 0.00 | 47 | 1013.0 |
| 20260504215129 | 77 | 92 | 0.0 | 1.7 | 0.00 | 0.00 | 0.00 | 49 | 1013.1 |
| 20260504214912 | 76 | 308 | 0.0 | 2.6 | 0.00 | 0.00 | 0.00 | 52 | 1013.0 |
| 20260504214128 | 76 | 313 | 0.0 | 2.6 | 0.00 | 0.00 | 0.00 | 51 | 1013.0 |
| 20260504213630 | 76 | 0 | 0.0 | 1.7 | 0.00 | 0.00 | 0.00 | 52 | 1013.0 |
| 20260504213129 | 76 | 0 | 0.0 | 3.5 | 0.00 | 0.00 | 0.00 | 50 | 1013.0 |
| 20260504212629 | 76 | 0 | 0.0 | 3.5 | 0.00 | 0.00 | 0.00 | 50 | 1012.9 |
| 20260504212130 | 76 | 252 | 0.0 | 3.5 | 0.00 | 0.00 | 0.00 | 48 | 1012.9 |
| 20260504211628 | 76 | 0 | 0.0 | 1.7 | 0.00 | 0.00 | 0.00 | 49 | 1012.9 |
| 20260504211414 | 77 | 0 | 0.0 | 3.5 | 0.00 | 0.00 | 0.00 | 48 | 1013.0 |
| 20260504210630 | 77 | 102 | 0.0 | 3.5 | 0.00 | 0.00 | 0.00 | 50 | 1013.0 |
| 20260504210130 | 77 | 297 | 0.0 | 3.5 | 0.00 | 0.00 | 0.00 | 48 | 1013.0 |
| 20260504205913 | 77 | 0 | 0.0 | 2.6 | 0.00 | 0.00 | 0.00 | 50 | 1013.0 |
| 20260504205130 | 77 | 0 | 0.9 | 2.6 | 0.00 | 0.00 | 0.00 | 50 | 1012.9 |
| 20260504204630 | 79 | 61 | 0.0 | 1.7 | 0.00 | 0.00 | 0.00 | 48 | 1013.0 |
| 20260504204130 | 79 | 0 | 0.0 | 1.7 | 0.00 | 0.00 | 0.00 | 45 | 1013.0 |
| 20260504203631 | 80 | 0 | 0.0 | 1.7 | 0.00 | 0.00 | 0.00 | 45 | 1013.1 |
| 20260504203129 | 80 | 353 | 0.0 | 2.6 | 0.00 | 0.00 | 0.00 | 44 | 1013.2 |
| 20260504202628 | 80 | 0 | 0.0 | 2.6 | 0.00 | 0.00 | 0.00 | 44 | 1013.3 |
| 20260504202129 | 79 | 0 | 0.9 | 2.6 | 0.00 | 0.00 | 0.00 | 42 | 1013.2 |
| 20260504201628 | 78 | 256 | 0.9 | 2.6 | 0.00 | 0.00 | 0.00 | 43 | 1013.3 |
| 20260504201411 | 78 | 0 | 0.0 | 2.6 | 0.00 | 0.00 | 0.00 | 43 | 1013.3 |
| 20260504200912 | 79 | 0 | 0.0 | 2.6 | 0.00 | 0.00 | 0.00 | 43 | 1013.4 |
| 20260504200128 | 79 | 0 | 0.0 | 2.6 | 0.00 | 0.00 | 0.00 | 46 | 1013.4 |
| 20260504195629 | 79 | 0 | 0.9 | 2.6 | 0.00 | 0.00 | 0.00 | 43 | 1013.5 |
| 20260504195129 | 79 | 278 | 0.0 | 2.6 | 0.00 | 0.00 | 0.00 | 48 | 1013.8 |
| 20260504194629 | 79 | 0 | 0.0 | 2.6 | 0.00 | 0.00 | 0.00 | 46 | 1013.8 |
| 20260504194129 | 79 | 0 | 0.0 | 1.7 | 0.00 | 0.00 | 0.00 | 45 | 1013.8 |
| 20260504193629 | 79 | 0 | 0.0 | 1.7 | 0.00 | 0.00 | 0.00 | 49 | 1013.9 |
| 20260504193129 | 79 | 0 | 0.0 | 1.7 | 0.00 | 0.00 | 0.00 | 46 | 1013.9 |
| 20260504192626 | 79 | 58 | 0.0 | 1.7 | 0.00 | 0.00 | 0.00 | 45 | 1014.0 |
| 20260504192127 | 78 | 0 | 0.0 | 1.7 | 0.00 | 0.00 | 0.00 | 45 | 1014.1 |
| 20260504191625 | 78 | 0 | 0.0 | 1.7 | 0.00 | 0.00 | 0.00 | 45 | 1014.1 |
| 20260504191123 | 78 | 0 | 0.0 | 1.7 | 0.00 | 0.00 | 0.00 | 45 | 1014.3 |
| 20260504190624 | 77 | 0 | 0.9 | 3.5 | 0.00 | 0.00 | 0.00 | 45 | 1014.4 |
| 20260504190124 | 78 | 350 | 0.9 | 3.5 | 0.00 | 0.00 | 0.00 | 42 | 1014.4 |
| 20260504185624 | 77 | 0 | 0.9 | 3.5 | 0.00 | 0.00 | 0.00 | 43 | 1014.5 |
| 20260504185407 | 77 | 331 | 0.9 | 3.5 | 0.00 | 0.00 | 0.00 | 44 | 1014.6 |
| 20260504184624 | 77 | 0 | 0.9 | 2.6 | 0.00 | 0.00 | 0.00 | 47 | 1014.6 |
| 20260504184122 | 78 | 55 | 0.9 | 2.6 | 0.00 | 0.00 | 0.00 | 48 | 1014.7 |
| 20260504183620 | 77 | 353 | 0.0 | 2.6 | 0.00 | 0.00 | 0.00 | 49 | 1014.8 |
| 20260504183142 | 77 | 0 | 0.0 | 1.7 | 0.00 | 0.00 | 0.00 | 49 | 1014.8 |
| 20260504182120 | 76 | 0 | 0.9 | 3.5 | 0.00 | 0.00 | 0.00 | 47 | 1014.9 |
| 20260504181903 | 76 | 342 | 0.9 | 3.5 | 0.00 | 0.00 | 0.00 | 46 | 1014.9 |
| 20260504181120 | 77 | 339 | 0.0 | 3.5 | 0.00 | 0.00 | 0.00 | 48 | 1014.9 |
| 20260504180619 | 78 | 200 | 0.0 | 3.5 | 0.00 | 0.00 | 0.00 | 51 | 1015.1 |
| 20260504180119 | 78 | 0 | 0.9 | 3.5 | 0.00 | 0.00 | 0.00 | 47 | 1015.2 |
| 20260504175618 | 77 | 0 | 0.0 | 2.6 | 0.00 | 0.00 | 0.00 | 50 | 1015.3 |
| 20260504175119 | 77 | 0 | 0.0 | 2.6 | 0.00 | 0.00 | 0.00 | 48 | 1015.3 |
| 20260504174619 | 76 | 0 | 0.0 | 1.7 | 0.00 | 0.00 | 0.00 | 50 | 1015.3 |
| 20260504174118 | 76 | 0 | 0.0 | 1.7 | 0.00 | 0.00 | 0.00 | 51 | 1015.4 |
| 20260504173617 | 75 | 351 | 0.0 | 3.5 | 0.00 | 0.00 | 0.00 | 50 | 1015.4 |
| 20260504173115 | 75 | 0 | 0.0 | 5.2 | 0.00 | 0.00 | 0.00 | 51 | 1015.5 |
| 20260504172859 | 73 | 14 | 0.0 | 5.2 | 0.00 | 0.00 | 0.00 | 53 | 1015.6 |
| 20260504172114 | 73 | 0 | 0.0 | 2.6 | 0.00 | 0.00 | 0.00 | 54 | 1015.6 |
| 20260504171613 | 73 | 359 | 0.0 | 2.6 | 0.00 | 0.00 | 0.00 | 54 | 1015.6 |
| 20260504171112 | 73 | 0 | 0.0 | 1.7 | 0.00 | 0.00 | 0.00 | 55 | 1015.6 |
| 20260504170611 | 73 | 0 | 0.0 | 1.7 | 0.00 | 0.00 | 0.00 | 53 | 1015.7 |
| 20260504170110 | 73 | 0 | 0.9 | 2.6 | 0.00 | 0.00 | 0.00 | 53 | 1015.9 |
| 20260504160352 | 72 | 284 | 0.0 | 3.5 | 0.00 | 0.00 | 0.00 | 53 | 1016.5 |
| 20260504151105 | 68 | 252 | 1.7 | 6.1 | 0.00 | 0.00 | 0.00 | 55 | 1016.7 |
| 20260504150602 | 67 | 3 | 2.6 | 6.1 | 0.00 | 0.00 | 0.00 | 55 | 1016.7 |
| 20260504141102 | 60 | 34 | 0.9 | 4.3 | 0.00 | 0.00 | 0.00 | 67 | 1017.1 |
| 20260504140602 | 59 | 16 | 1.7 | 3.5 | 0.00 | 0.00 | 0.00 | 70 | 1017.1 |
| 20260504140345 | 57 | 37 | 1.7 | 7.0 | 0.00 | 0.00 | 0.00 | 74 | 1017.1 |
| 20260504130601 | 48 | 50 | 1.7 | 3.5 | 0.00 | 0.00 | 0.00 | 100 | 1016.9 |
| 20260504110601 | 40 | 224 | 0.9 | 1.7 | 0.00 | 0.00 | 0.00 | 99 | 1016.6 |
| 20260504100602 | 40 | 78 | 0.9 | 1.7 | 0.00 | 0.00 | 0.00 | 99 | 1016.4 |
| 20260504090132 | 41 | 21 | 0.9 | 1.7 | 0.00 | 0.00 | 0.00 | 99 | 1016.4 |
| 20260504090123 | 41 | 198 | 0.9 | 1.7 | 0.00 | 0.00 | 0.00 | 99 | 1016.4 |
| 20260504081601 | 41 | 20 | 0.9 | 1.7 | 0.00 | 0.00 | 0.00 | 99 | 1016.2 |
| 20260504081103 | 41 | 179 | 0.9 | 1.7 | 0.00 | 0.00 | 0.00 | 99 | 1016.2 |
| 20260504080602 | 41 | 23 | 0.9 | 1.7 | 0.00 | 0.00 | 0.00 | 99 | 1016.3 |
| 20260504050549 | 45 | 48 | 0.9 | 1.7 | 0.00 | 0.00 | 0.00 | 97 | 1017.2 |
| 20260504045549 | 45 | 54 | 0.9 | 1.7 | 0.00 | 0.00 | 0.00 | 97 | 1017.2 |
| 20260504045049 | 45 | 34 | 0.9 | 1.7 | 0.00 | 0.00 | 0.00 | 97 | 1017.3 |
| 20260504044548 | 45 | 27 | 0.9 | 1.7 | 0.00 | 0.00 | 0.00 | 97 | 1017.2 |
| 20260504044049 | 45 | 25 | 0.9 | 1.7 | 0.00 | 0.00 | 0.00 | 97 | 1017.3 |
| 20260504043549 | 46 | 21 | 0.9 | 1.7 | 0.00 | 0.00 | 0.00 | 97 | 1017.2 |
| 20260504043333 | 46 | 29 | 0.9 | 1.7 | 0.00 | 0.00 | 0.00 | 97 | 1017.3 |
| 20260504042834 | 46 | 47 | 0.9 | 1.7 | 0.00 | 0.00 | 0.00 | 96 | 1017.3 |
| 20260504042049 | 46 | 0 | 0.9 | 1.7 | 0.00 | 0.00 | 0.00 | 96 | 1017.5 |
| 20260504041547 | 46 | 36 | 1.7 | 1.7 | 0.00 | 0.00 | 0.00 | 96 | 1017.5 |
| 20260504041049 | 46 | 17 | 0.9 | 1.7 | 0.00 | 0.00 | 0.00 | 96 | 1017.5 |
| 20260504040548 | 46 | 23 | 0.9 | 1.7 | 0.00 | 0.00 | 0.00 | 95 | 1017.5 |
| 20260504040048 | 46 | 40 | 0.9 | 1.7 | 0.00 | 0.00 | 0.00 | 95 | 1017.5 |
| 20260504035548 | 47 | 21 | 0.9 | 1.7 | 0.00 | 0.00 | 0.00 | 95 | 1017.5 |
| 20260504035047 | 47 | 20 | 0.9 | 1.7 | 0.00 | 0.00 | 0.00 | 94 | 1017.6 |
| 20260504034832 | 47 | 29 | 0.9 | 1.7 | 0.00 | 0.00 | 0.00 | 94 | 1017.6 |
| 20260504034048 | 47 | 38 | 0.9 | 1.7 | 0.00 | 0.00 | 0.00 | 94 | 1017.5 |
| 20260504033547 | 47 | 26 | 0.9 | 1.7 | 0.00 | 0.00 | 0.00 | 94 | 1017.5 |
| 20260504033330 | 47 | 221 | 0.9 | 1.7 | 0.00 | 0.00 | 0.00 | 94 | 1017.5 |
| 20260504032548 | 47 | 22 | 0.9 | 1.7 | 0.00 | 0.00 | 0.00 | 94 | 1017.5 |
| 20260504032045 | 47 | 4 | 0.9 | 1.7 | 0.00 | 0.00 | 0.00 | 94 | 1017.5 |
| 20260504031545 | 47 | 7 | 0.9 | 1.7 | 0.00 | 0.00 | 0.00 | 93 | 1017.3 |
| 20260504031045 | 48 | 11 | 0.9 | 1.7 | 0.00 | 0.00 | 0.00 | 93 | 1017.2 |
| 20260504030544 | 48 | 12 | 0.9 | 1.7 | 0.00 | 0.00 | 0.00 | 92 | 1017.3 |
| 20260504030325 | 48 | 16 | 0.9 | 1.7 | 0.00 | 0.00 | 0.00 | 92 | 1017.3 |
| 20260504025825 | 48 | 6 | 0.9 | 1.7 | 0.00 | 0.00 | 0.00 | 92 | 1017.2 |
| 20260504025042 | 48 | 0 | 0.9 | 1.7 | 0.00 | 0.00 | 0.00 | 91 | 1017.2 |
| 20260504024542 | 49 | 12 | 0.9 | 1.7 | 0.00 | 0.00 | 0.00 | 90 | 1017.3 |
| 20260504024042 | 49 | 11 | 0.9 | 1.7 | 0.00 | 0.00 | 0.00 | 90 | 1017.2 |
| 20260504023542 | 49 | 38 | 0.9 | 1.7 | 0.00 | 0.00 | 0.00 | 90 | 1017.2 |
| 20260504023040 | 49 | 12 | 0.9 | 1.7 | 0.00 | 0.00 | 0.00 | 89 | 1017.1 |
| 20260504022541 | 49 | 54 | 0.9 | 1.7 | 0.00 | 0.00 | 0.00 | 89 | 1017.0 |
| 20260504022040 | 49 | 46 | 1.7 | 1.7 | 0.00 | 0.00 | 0.00 | 88 | 1017.0 |
| 20260504021825 | 50 | 13 | 0.9 | 1.7 | 0.00 | 0.00 | 0.00 | 87 | 1017.0 |
| 20260504021041 | 50 | 14 | 0.9 | 1.7 | 0.00 | 0.00 | 0.00 | 87 | 1016.9 |
| 20260504020541 | 50 | 26 | 1.7 | 2.6 | 0.00 | 0.00 | 0.00 | 87 | 1016.8 |
| 20260504020040 | 51 | 31 | 1.7 | 2.6 | 0.00 | 0.00 | 0.00 | 86 | 1016.7 |
| 20260504015541 | 51 | 40 | 1.7 | 3.5 | 0.00 | 0.00 | 0.00 | 85 | 1016.7 |
| 20260504015041 | 51 | 40 | 1.7 | 3.5 | 0.00 | 0.00 | 0.00 | 84 | 1016.6 |
| 20260504014541 | 52 | 41 | 1.7 | 3.5 | 0.00 | 0.00 | 0.00 | 84 | 1016.5 |
| 20260504014329 | 52 | 30 | 0.9 | 3.5 | 0.00 | 0.00 | 0.00 | 83 | 1016.5 |
| 20260504013541 | 52 | 84 | 0.9 | 2.6 | 0.00 | 0.00 | 0.00 | 82 | 1016.6 |
| 20260504013040 | 53 | 0 | 0.9 | 2.6 | 0.00 | 0.00 | 0.00 | 81 | 1016.5 |
| 20260504012541 | 53 | 41 | 0.9 | 2.6 | 0.00 | 0.00 | 0.00 | 80 | 1016.4 |
| 20260504012037 | 54 | 29 | 0.9 | 1.7 | 0.00 | 0.00 | 0.00 | 79 | 1016.3 |
| 20260504011537 | 54 | 24 | 1.7 | 1.7 | 0.00 | 0.00 | 0.00 | 78 | 1016.3 |
| 20260504011037 | 55 | 25 | 1.7 | 2.6 | 0.00 | 0.00 | 0.00 | 77 | 1016.2 |
| 20260504010822 | 55 | 25 | 1.7 | 2.6 | 0.00 | 0.00 | 0.00 | 76 | 1016.2 |
| 20260504010321 | 56 | 22 | 1.7 | 2.6 | 0.00 | 0.00 | 0.00 | 75 | 1016.2 |
| 20260504005538 | 56 | 24 | 0.9 | 1.7 | 0.00 | 0.00 | 0.00 | 74 | 1016.2 |
| 20260504005038 | 57 | 15 | 0.9 | 1.7 | 0.00 | 0.00 | 0.00 | 72 | 1016.1 |
| 20260504004538 | 57 | 47 | 0.9 | 1.7 | 0.00 | 0.00 | 0.00 | 71 | 1016.1 |
| 20260504004037 | 58 | 3 | 0.9 | 1.7 | 0.00 | 0.00 | 0.00 | 70 | 1016.1 |
| 20260504003822 | 58 | 14 | 0.9 | 2.6 | 0.00 | 0.00 | 0.00 | 69 | 1016.0 |
| 20260504003039 | 59 | 353 | 1.7 | 2.6 | 0.00 | 0.00 | 0.00 | 66 | 1015.9 |
| 20260504002538 | 59 | 1 | 1.7 | 2.6 | 0.00 | 0.00 | 0.00 | 64 | 1015.9 |
| 20260504002035 | 60 | 27 | 1.7 | 2.6 | 0.00 | 0.00 | 0.00 | 63 | 1015.9 |
| 20260504001820 | 61 | 33 | 1.7 | 2.6 | 0.00 | 0.00 | 0.00 | 61 | 1016.0 |
| 20260504001319 | 61 | 30 | 0.9 | 2.6 | 0.00 | 0.00 | 0.00 | 60 | 1016.0 |
| 20260504000849 | 63 | 32 | 0.0 | 1.7 | 0.00 | 0.00 | 0.00 | 57 | 1015.9 |
| 20260504000843 | 62 | 308 | 0.0 | 2.6 | 0.00 | 0.00 | 0.00 | 58 | 1015.9 |
| 20260503235534 | 63 | 0 | 0.0 | 1.7 | 0.00 | 0.00 | 0.00 | 56 | 1015.9 |
| 20260503235033 | 64 | 308 | 0.0 | 1.7 | 0.00 | 0.00 | 0.00 | 55 | 1015.9 |
| 20260503234534 | 64 | 344 | 0.9 | 3.5 | 0.00 | 0.00 | 0.00 | 54 | 1015.9 |
| 20260503234034 | 64 | 285 | 0.9 | 5.2 | 0.00 | 0.00 | 0.00 | 52 | 1016.0 |
| 20260503233533 | 65 | 290 | 1.7 | 5.2 | 0.00 | 0.00 | 0.00 | 54 | 1016.0 |
| 20260503233034 | 65 | 355 | 1.7 | 6.1 | 0.00 | 0.00 | 0.00 | 49 | 1016.0 |
| 20260503232535 | 65 | 286 | 1.7 | 6.1 | 0.00 | 0.00 | 0.00 | 48 | 1015.9 |
| 20260503232031 | 66 | 306 | 2.6 | 7.0 | 0.00 | 0.00 | 0.00 | 50 | 1015.9 |
| 20260503231530 | 66 | 19 | 3.5 | 7.0 | 0.00 | 0.00 | 0.00 | 52 | 1016.0 |
| 20260503231031 | 66 | 15 | 3.5 | 7.0 | 0.00 | 0.00 | 0.00 | 46 | 1016.0 |
| 20260503230531 | 66 | 230 | 3.5 | 7.0 | 0.00 | 0.00 | 0.00 | 46 | 1016.0 |
| 20260503230031 | 66 | 26 | 3.5 | 7.0 | 0.00 | 0.00 | 0.00 | 46 | 1016.0 |
| 20260503225530 | 66 | 314 | 3.5 | 6.1 | 0.00 | 0.00 | 0.00 | 46 | 1016.0 |
| 20260503225029 | 67 | 15 | 3.5 | 6.1 | 0.00 | 0.00 | 0.00 | 47 | 1016.1 |
| 20260503224530 | 67 | 34 | 3.5 | 6.1 | 0.00 | 0.00 | 0.00 | 51 | 1016.0 |
| 20260503224030 | 67 | 35 | 3.5 | 5.2 | 0.00 | 0.00 | 0.00 | 54 | 1016.0 |
| 20260503223530 | 68 | 37 | 2.6 | 4.3 | 0.00 | 0.00 | 0.00 | 44 | 1015.9 |
| 20260503223029 | 68 | 29 | 2.6 | 4.3 | 0.00 | 0.00 | 0.00 | 49 | 1016.0 |
| 20260503222529 | 68 | 48 | 2.6 | 4.3 | 0.00 | 0.00 | 0.00 | 46 | 1016.0 |